Time;durP1;ratioP1;P1;durP2;ratioP2;P2;SDS_P1;SDS_P2;PMS_P1;PMS_P2;Temp;Humidity;BMP_temperature;BMP_pressure;BME280_temperature;BME280_humidity;BME280_pressure;Samples;Min_cycle;Max_cycle;Signal;HPM_P1;HPM_P2
2021/05/16 00:00:34;;;;;;;9.10;6.37;;;11.50;84.30;;;;;;4957205;28;20470;-46
2021/05/16 00:03:04;;;;;;;7.20;5.20;;;11.50;84.70;;;;;;4956956;28;20462;-46
2021/05/16 00:05:33;;;;;;;9.07;5.73;;;11.50;83.80;;;;;;4960367;28;20839;-46
2021/05/16 00:08:01;;;;;;;8.40;5.83;;;11.50;84.20;;;;;;4961063;28;20587;-46
2021/05/16 00:10:31;;;;;;;8.70;5.80;;;11.50;84.30;;;;;;4955775;28;20492;-46
2021/05/16 00:13:00;;;;;;;10.30;6.77;;;11.40;84.60;;;;;;4961724;28;20538;-46
2021/05/16 00:15:30;;;;;;;9.97;6.77;;;11.50;84.60;;;;;;4956873;28;20494;-46
2021/05/16 00:17:58;;;;;;;9.97;6.60;;;11.50;84.90;;;;;;4961018;28;20459;-46
2021/05/16 00:20:29;;;;;;;11.60;7.73;;;11.60;84.60;;;;;;4954331;28;20471;-46
2021/05/16 00:22:58;;;;;;;11.53;7.50;;;11.60;84.60;;;;;;4957218;28;20455;-46
2021/05/16 00:25:27;;;;;;;7.83;6.80;;;11.50;84.80;;;;;;4962263;28;20811;-46
2021/05/16 00:27:55;;;;;;;10.70;7.40;;;11.50;84.80;;;;;;4954229;28;20463;-46
2021/05/16 00:30:25;;;;;;;8.67;6.33;;;11.50;84.80;;;;;;4959051;28;20462;-46
2021/05/16 00:32:55;;;;;;;7.40;5.57;;;11.50;84.80;;;;;;4955924;28;20558;-46
2021/05/16 00:35:27;;;;;;;9.40;6.67;;;11.50;84.90;;;;;;4963140;28;20516;-46
2021/05/16 00:37:57;;;;;;;9.47;6.40;;;11.50;84.70;;;;;;4958506;28;20467;-46
2021/05/16 00:40:26;;;;;;;7.97;6.17;;;11.50;84.80;;;;;;4962222;28;20510;-46
2021/05/16 00:42:55;;;;;;;12.33;6.03;;;11.50;84.70;;;;;;4957025;28;20478;-46
2021/05/16 00:45:26;;;;;;;8.47;5.90;;;11.50;84.70;;;;;;4959556;28;20477;-46
2021/05/16 00:48:00;;;;;;;7.30;4.80;;;11.50;84.70;;;;;;4956570;28;20461;-46
2021/05/16 00:50:38;;;;;;;7.83;5.93;;;11.40;84.70;;;;;;4958789;28;20954;-46
2021/05/16 00:53:07;;;;;;;9.07;5.73;;;11.40;84.60;;;;;;4952874;28;20486;-46
2021/05/16 00:55:36;;;;;;;7.43;5.23;;;11.40;84.50;;;;;;4960863;28;20487;-46
2021/05/16 00:58:05;;;;;;;7.43;4.97;;;11.30;84.50;;;;;;4957783;28;20481;-46
2021/05/16 01:00:41;;;;;;;9.20;6.13;;;11.30;84.60;;;;;;4954996;28;20458;-46
2021/05/16 01:03:10;;;;;;;11.33;6.17;;;11.30;84.70;;;;;;4961181;28;20930;-46
2021/05/16 01:05:41;;;;;;;10.97;6.20;;;11.20;84.70;;;;;;4960133;28;20465;-46
2021/05/16 01:08:10;;;;;;;8.27;6.00;;;11.20;84.80;;;;;;4954615;28;20473;-46
2021/05/16 01:10:39;;;;;;;9.20;5.80;;;11.20;84.80;;;;;;4955189;28;20455;-46
2021/05/16 01:13:09;;;;;;;8.27;5.70;;;11.20;84.80;;;;;;4952297;28;20466;-46
2021/05/16 01:15:40;;;;;;;9.70;6.20;;;11.20;84.90;;;;;;4946022;28;20495;-46
2021/05/16 01:18:09;;;;;;;7.40;5.10;;;11.20;84.90;;;;;;4952871;28;20486;-46
2021/05/16 01:20:41;;;;;;;8.17;5.30;;;11.20;84.90;;;;;;4951974;28;20470;-46
2021/05/16 01:23:12;;;;;;;11.10;5.73;;;11.10;85.00;;;;;;4955066;28;20629;-46
2021/05/16 01:25:45;;;;;;;7.30;5.37;;;11.10;85.10;;;;;;4955940;28;20470;-46
2021/05/16 01:28:17;;;;;;;6.40;4.83;;;11.10;85.00;;;;;;4952773;28;20484;-46
2021/05/16 01:30:47;;;;;;;6.30;5.33;;;11.10;85.10;;;;;;4952958;28;20458;-46
2021/05/16 01:33:15;;;;;;;6.80;4.67;;;11.10;85.10;;;;;;4955818;28;20513;-46
2021/05/16 01:35:43;;;;;;;8.57;5.20;;;11.10;85.10;;;;;;4950756;28;20855;-46
2021/05/16 01:38:13;;;;;;;9.87;5.70;;;11.10;85.20;;;;;;4955102;28;20462;-46
2021/05/16 01:40:42;;;;;;;7.67;5.07;;;11.10;85.10;;;;;;4957059;28;20811;-46
2021/05/16 01:43:11;;;;;;;10.37;5.80;;;11.10;85.20;;;;;;4956010;28;20462;-46
2021/05/16 01:45:40;;;;;;;10.47;5.90;;;11.10;85.20;;;;;;4954121;28;20470;-46
2021/05/16 01:48:09;;;;;;;11.43;5.70;;;11.10;85.20;;;;;;4955950;28;20919;-46
2021/05/16 01:50:39;;;;;;;6.93;5.07;;;11.10;85.20;;;;;;4951417;28;20463;-46
2021/05/16 01:53:09;;;;;;;7.93;5.67;;;11.10;85.10;;;;;;4951018;28;20471;-46
2021/05/16 01:55:37;;;;;;;8.43;5.40;;;11.10;85.00;;;;;;4952560;28;20518;-46
2021/05/16 01:58:05;;;;;;;8.83;5.07;;;11.10;85.10;;;;;;4949456;28;20463;-46
2021/05/16 02:00:38;;;;;;;8.07;4.83;;;11.00;85.00;;;;;;4951973;28;20466;-46
2021/05/16 02:03:06;;;;;;;23.43;5.60;;;11.00;85.00;;;;;;4955731;28;20454;-46
2021/05/16 02:05:34;;;;;;;4.80;4.30;;;11.00;85.00;;;;;;4953923;28;20522;-46
2021/05/16 02:08:04;;;;;;;8.93;5.20;;;11.00;85.00;;;;;;4954560;28;20463;-46
2021/05/16 02:10:32;;;;;;;6.23;4.53;;;11.00;85.00;;;;;;4952847;28;20508;-46
2021/05/16 02:13:00;;;;;;;10.13;5.60;;;11.00;85.00;;;;;;4951359;28;20828;-46
2021/05/16 02:15:28;;;;;;;8.77;6.40;;;11.00;85.10;;;;;;4954299;28;20483;-46
2021/05/16 02:17:59;;;;;;;5.93;5.30;;;11.00;85.20;;;;;;4953990;28;20472;-46
2021/05/16 02:20:27;;;;;;;9.73;5.53;;;11.00;85.30;;;;;;4952209;28;20467;-46
2021/05/16 02:22:56;;;;;;;10.30;5.93;;;11.00;85.20;;;;;;4949829;28;20455;-46
2021/05/16 02:25:23;;;;;;;7.50;5.40;;;11.00;85.10;;;;;;4954803;28;20470;-46
2021/05/16 02:27:51;;;;;;;5.70;4.90;;;11.00;85.10;;;;;;4950121;28;20462;-46
2021/05/16 02:30:20;;;;;;;5.23;4.60;;;11.00;85.10;;;;;;4952893;28;20462;-46
2021/05/16 02:32:48;;;;;;;7.90;4.90;;;11.00;85.20;;;;;;4950773;28;20470;-46
2021/05/16 02:35:16;;;;;;;7.03;5.20;;;11.00;85.20;;;;;;4953624;28;20469;-46
2021/05/16 02:37:45;;;;;;;7.47;4.97;;;11.00;85.20;;;;;;4955665;28;20455;-46
2021/05/16 02:40:13;;;;;;;7.10;5.00;;;11.00;85.20;;;;;;4948974;28;20486;-46
2021/05/16 02:42:41;;;;;;;8.80;5.10;;;11.10;85.30;;;;;;4954681;28;20455;-46
2021/05/16 02:45:11;;;;;;;5.50;4.80;;;11.00;85.30;;;;;;4954687;28;20482;-46
2021/05/16 02:47:42;;;;;;;5.20;4.80;;;11.00;85.30;;;;;;4951563;28;20486;-46
2021/05/16 02:50:12;;;;;;;11.13;6.10;;;11.00;85.40;;;;;;4952871;28;20467;-47
2021/05/16 02:52:40;;;;;;;7.77;5.17;;;11.10;85.40;;;;;;4950013;28;21090;-47
2021/05/16 02:55:09;;;;;;;8.43;5.77;;;11.10;85.50;;;;;;4950527;28;20455;-47
2021/05/16 02:57:37;;;;;;;7.60;4.90;;;11.10;85.40;;;;;;4949419;28;20479;-47
2021/05/16 03:00:06;;;;;;;7.10;6.07;;;11.10;85.40;;;;;;4952162;28;20482;-47
2021/05/16 03:02:34;;;;;;;5.33;4.60;;;11.10;85.30;;;;;;4949605;28;20471;-47
2021/05/16 03:05:02;;;;;;;7.40;5.20;;;11.10;85.30;;;;;;4951373;28;20469;-48
2021/05/16 03:07:30;;;;;;;5.80;5.00;;;11.10;85.00;;;;;;4954357;28;20485;-47
2021/05/16 03:09:58;;;;;;;4.80;4.40;;;11.10;85.00;;;;;;4953237;28;20552;-47
2021/05/16 03:12:27;;;;;;;9.13;5.17;;;11.00;85.00;;;;;;4953903;28;20466;-47
2021/05/16 03:14:55;;;;;;;8.27;5.27;;;11.00;85.00;;;;;;4956627;28;20474;-47
2021/05/16 03:17:23;;;;;;;5.30;4.80;;;11.00;85.00;;;;;;4959335;28;20486;-48
2021/05/16 03:19:51;;;;;;;5.43;4.57;;;11.00;85.00;;;;;;4955564;28;20465;-47
2021/05/16 03:22:19;;;;;;;6.90;5.13;;;11.00;85.10;;;;;;4954403;28;20471;-47
2021/05/16 03:24:47;;;;;;;8.80;5.83;;;11.00;85.00;;;;;;4954779;28;20471;-48
2021/05/16 03:27:15;;;;;;;8.43;5.40;;;11.00;85.20;;;;;;4951952;28;20484;-47
2021/05/16 03:29:43;;;;;;;12.20;6.83;;;11.00;85.40;;;;;;4958946;28;20956;-48
2021/05/16 03:32:11;;;;;;;7.73;5.00;;;10.90;85.40;;;;;;4956489;28;20463;-47
2021/05/16 03:34:39;;;;;;;10.50;5.70;;;11.00;85.60;;;;;;4952131;28;20466;-47
2021/05/16 03:37:07;;;;;;;9.00;5.20;;;11.00;85.70;;;;;;4951525;28;20506;-47
2021/05/16 03:39:35;;;;;;;9.07;5.50;;;11.00;85.70;;;;;;4956743;28;20455;-47
2021/05/16 03:42:04;;;;;;;8.43;5.07;;;11.00;85.70;;;;;;4953911;28;20465;-48
2021/05/16 03:44:32;;;;;;;6.30;4.50;;;11.00;85.70;;;;;;4956560;28;20459;-47
2021/05/16 03:47:00;;;;;;;8.30;5.20;;;11.00;85.70;;;;;;4959125;28;20474;-47
2021/05/16 03:49:28;;;;;;;6.00;4.67;;;11.10;85.60;;;;;;4960935;28;20458;-47
2021/05/16 03:51:56;;;;;;;6.30;4.67;;;11.10;85.60;;;;;;4953047;28;20489;-47
2021/05/16 03:54:25;;;;;;;6.60;4.80;;;11.10;85.60;;;;;;4959589;28;20546;-47
2021/05/16 03:56:53;;;;;;;6.43;4.50;;;11.10;85.60;;;;;;4957126;28;20837;-47
2021/05/16 03:59:21;;;;;;;5.43;4.60;;;11.10;85.70;;;;;;4958488;28;20522;-47
2021/05/16 04:01:51;;;;;;;5.87;3.93;;;11.20;85.60;;;;;;4958409;28;20510;-47
2021/05/16 04:04:19;;;;;;;9.23;4.97;;;11.20;85.30;;;;;;4958677;28;20458;-47
2021/05/16 04:06:46;;;;;;;9.20;5.20;;;11.20;85.30;;;;;;4955661;28;20983;-48
2021/05/16 04:09:15;;;;;;;5.70;4.20;;;11.20;85.30;;;;;;4957202;28;20521;-47
2021/05/16 04:11:43;;;;;;;5.33;4.57;;;11.30;85.40;;;;;;4951989;28;20461;-47
2021/05/16 04:14:11;;;;;;;5.80;4.33;;;11.20;85.40;;;;;;4956117;28;20467;-47
2021/05/16 04:16:39;;;;;;;6.80;4.80;;;11.30;85.60;;;;;;4956205;28;20486;-47
2021/05/16 04:19:07;;;;;;;6.57;5.13;;;11.30;85.70;;;;;;4952182;28;20463;-47
2021/05/16 04:21:35;;;;;;;5.13;4.63;;;11.30;85.70;;;;;;4953296;28;20463;-47
2021/05/16 04:24:03;;;;;;;12.40;5.70;;;11.40;85.70;;;;;;4957329;28;20827;-47
2021/05/16 04:26:31;;;;;;;9.40;4.80;;;11.40;85.80;;;;;;4955627;28;20835;-47
2021/05/16 04:28:59;;;;;;;11.07;5.03;;;11.40;85.80;;;;;;4950803;28;20476;-48
2021/05/16 04:31:27;;;;;;;7.00;4.43;;;11.40;85.70;;;;;;4953222;28;20495;-47
2021/05/16 04:33:55;;;;;;;10.60;4.70;;;11.40;85.60;;;;;;4952906;28;20833;-47
2021/05/16 04:36:23;;;;;;;7.60;4.93;;;11.40;85.60;;;;;;4954493;28;20486;-48
2021/05/16 04:38:52;;;;;;;6.23;4.20;;;11.40;85.50;;;;;;4956245;28;20471;-47
2021/05/16 04:41:21;;;;;;;8.10;4.27;;;11.40;85.50;;;;;;4957268;28;20970;-48
2021/05/16 04:43:49;;;;;;;8.20;4.10;;;11.50;85.50;;;;;;4954660;28;20501;-47
2021/05/16 04:46:17;;;;;;;6.67;4.17;;;11.50;85.30;;;;;;4956843;28;20470;-48
2021/05/16 04:48:45;;;;;;;6.73;4.60;;;11.50;85.20;;;;;;4958253;28;20470;-47
2021/05/16 04:51:13;;;;;;;5.67;3.97;;;11.50;85.00;;;;;;4957344;28;21049;-47
2021/05/16 04:53:41;;;;;;;6.80;4.23;;;11.60;85.10;;;;;;4957422;28;20502;-48
2021/05/16 04:56:10;;;;;;;6.40;3.53;;;11.60;85.10;;;;;;4959809;28;21001;-47
2021/05/16 04:58:40;;;;;;;8.20;4.53;;;11.60;84.90;;;;;;4957168;28;20478;-47
2021/05/16 05:01:09;;;;;;;4.67;4.27;;;11.60;84.90;;;;;;4956651;28;20538;-47
2021/05/16 05:03:38;;;;;;;4.63;4.10;;;11.60;84.70;;;;;;4955718;28;20462;-47
2021/05/16 05:06:06;;;;;;;4.70;4.20;;;11.70;84.70;;;;;;4961963;28;20459;-47
2021/05/16 05:08:36;;;;;;;4.97;3.90;;;11.70;84.60;;;;;;4955174;28;20443;-47
2021/05/16 05:11:04;;;;;;;5.67;4.40;;;11.70;84.60;;;;;;4959167;28;20823;-48
2021/05/16 05:13:33;;;;;;;5.47;3.97;;;11.70;84.50;;;;;;4951382;28;20463;-47
2021/05/16 05:16:01;;;;;;;7.30;4.20;;;11.70;84.60;;;;;;4952139;28;20501;-48
2021/05/16 05:18:31;;;;;;;7.20;4.30;;;11.80;84.00;;;;;;4955535;28;20471;-47
2021/05/16 05:21:00;;;;;;;6.30;4.03;;;11.80;84.10;;;;;;4954801;28;20479;-47
2021/05/16 05:23:29;;;;;;;4.50;3.80;;;11.80;84.20;;;;;;4958589;28;20462;-47
2021/05/16 05:25:58;;;;;;;6.10;4.10;;;11.80;84.10;;;;;;4954088;28;20458;-47
2021/05/16 05:28:26;;;;;;;4.70;4.30;;;11.80;84.10;;;;;;4955672;28;20471;-47
2021/05/16 05:30:54;;;;;;;7.27;4.10;;;11.80;84.20;;;;;;4957264;28;20455;-47
2021/05/16 05:33:23;;;;;;;4.60;3.70;;;11.90;84.30;;;;;;4950467;28;21056;-48
2021/05/16 05:35:52;;;;;;;4.90;4.27;;;11.90;84.40;;;;;;4958715;28;20459;-47
2021/05/16 05:38:20;;;;;;;4.73;3.90;;;11.90;84.50;;;;;;4956730;28;20462;-48
2021/05/16 05:40:49;;;;;;;5.20;4.70;;;12.00;84.50;;;;;;4958894;28;20864;-48
2021/05/16 05:43:19;;;;;;;8.57;4.90;;;12.00;84.50;;;;;;4955052;28;20805;-47
2021/05/16 05:45:48;;;;;;;6.80;3.80;;;12.00;84.40;;;;;;4956656;28;20820;-47
2021/05/16 05:48:16;;;;;;;8.27;4.30;;;12.10;84.60;;;;;;4955720;28;20955;-47
2021/05/16 05:50:44;;;;;;;6.67;4.53;;;12.10;84.50;;;;;;4954860;28;20984;-48
2021/05/16 05:53:12;;;;;;;5.63;3.40;;;12.20;84.70;;;;;;4957254;28;21023;-47
2021/05/16 05:55:41;;;;;;;5.20;3.80;;;12.20;84.60;;;;;;4961329;28;20812;-47
2021/05/16 05:58:09;;;;;;;5.20;3.50;;;12.20;84.70;;;;;;4955059;28;21102;-47
2021/05/16 06:00:40;;;;;;;4.37;3.50;;;12.30;84.80;;;;;;4955317;28;20463;-47
2021/05/16 06:03:08;;;;;;;7.60;3.63;;;12.30;84.70;;;;;;4962032;28;20474;-47
2021/05/16 06:05:37;;;;;;;5.47;3.87;;;12.30;84.60;;;;;;4956350;28;20880;-47
2021/05/16 06:08:07;;;;;;;4.60;3.20;;;12.40;84.60;;;;;;4950508;28;20459;-47
2021/05/16 06:10:36;;;;;;;5.97;3.00;;;12.50;84.50;;;;;;4949144;28;20601;-47
2021/05/16 06:13:04;;;;;;;5.87;3.40;;;12.50;84.10;;;;;;4947975;28;20467;-47
2021/05/16 06:15:31;;;;;;;5.63;3.23;;;12.50;83.40;;;;;;4951915;28;20459;-47
2021/05/16 06:18:01;;;;;;;6.00;3.43;;;12.50;83.60;;;;;;4948307;28;20486;-47
2021/05/16 06:20:30;;;;;;;5.63;3.00;;;12.50;83.70;;;;;;4951693;28;20463;-47
2021/05/16 06:23:01;;;;;;;2.90;2.70;;;12.50;83.70;;;;;;4949725;28;20462;-47
2021/05/16 06:25:30;;;;;;;6.30;2.70;;;12.60;83.30;;;;;;4949123;28;20550;-47
2021/05/16 06:27:58;;;;;;;3.03;2.73;;;12.60;82.80;;;;;;4949373;28;20460;-47
2021/05/16 06:30:26;;;;;;;3.93;2.43;;;12.60;83.20;;;;;;4952088;28;20530;-47
2021/05/16 06:32:55;;;;;;;3.97;2.13;;;12.70;83.30;;;;;;4946921;28;20467;-47
2021/05/16 06:35:23;;;;;;;2.53;2.30;;;12.70;83.10;;;;;;4951532;28;20498;-47
2021/05/16 06:37:55;;;;;;;4.60;2.10;;;12.60;83.00;;;;;;4949300;28;20549;-47
2021/05/16 06:40:23;;;;;;;3.57;2.23;;;12.60;83.40;;;;;;4953049;28;21059;-47
2021/05/16 06:42:53;;;;;;;4.83;3.17;;;12.60;83.80;;;;;;4950931;28;20947;-47
2021/05/16 06:45:21;;;;;;;6.47;2.57;;;12.60;84.10;;;;;;4965181;28;20457;-47
2021/05/16 06:47:49;;;;;;;4.57;2.60;;;12.60;84.30;;;;;;4949361;28;20819;-47
2021/05/16 06:50:19;;;;;;;4.50;2.80;;;12.60;84.40;;;;;;4946730;28;20526;-47
2021/05/16 06:52:50;;;;;;;5.50;2.57;;;12.70;84.20;;;;;;4952705;28;20632;-47
2021/05/16 06:55:18;;;;;;;2.10;1.80;;;12.80;83.70;;;;;;4949336;28;20463;-47
2021/05/16 06:57:46;;;;;;;3.80;2.40;;;12.90;83.80;;;;;;4950660;28;20487;-47
2021/05/16 07:00:14;;;;;;;4.27;2.40;;;12.90;83.60;;;;;;4946960;28;20458;-47
2021/05/16 07:02:42;;;;;;;4.87;2.27;;;12.90;83.60;;;;;;4944855;28;20459;-48
2021/05/16 07:05:10;;;;;;;3.20;2.60;;;12.90;83.50;;;;;;4949108;28;20470;-47
2021/05/16 07:07:40;;;;;;;5.73;2.20;;;13.00;83.70;;;;;;4950628;28;20940;-48
2021/05/16 07:10:08;;;;;;;4.90;2.17;;;13.00;83.40;;;;;;4953690;28;20450;-48
2021/05/16 07:12:36;;;;;;;3.53;2.00;;;13.00;83.10;;;;;;4948971;28;21023;-47
2021/05/16 07:15:05;;;;;;;1.70;1.60;;;13.00;83.10;;;;;;4953804;28;20979;-48
2021/05/16 07:17:35;;;;;;;2.33;2.10;;;13.10;83.20;;;;;;4957548;28;20499;-47
2021/05/16 07:20:04;;;;;;;3.17;2.00;;;13.10;83.20;;;;;;4957548;28;20462;-47
2021/05/16 07:22:32;;;;;;;2.07;1.60;;;13.20;83.20;;;;;;4958347;28;20456;-47
2021/05/16 07:25:00;;;;;;;2.80;1.30;;;13.30;83.70;;;;;;4957365;28;20455;-47
2021/05/16 07:27:28;;;;;;;1.93;1.30;;;13.50;82.90;;;;;;4952723;28;20478;-47
2021/05/16 07:29:56;;;;;;;1.60;1.30;;;13.60;80.90;;;;;;4955961;28;20462;-47
2021/05/16 07:32:24;;;;;;;1.77;1.00;;;13.70;80.60;;;;;;4956611;28;20466;-47
2021/05/16 07:34:52;;;;;;;3.20;1.23;;;13.80;80.30;;;;;;4953446;28;20458;-47
2021/05/16 07:37:20;;;;;;;10.40;5.20;;;13.80;80.00;;;;;;4955430;28;20938;-47
2021/05/16 07:39:48;;;;;;;3.47;2.47;;;13.70;80.10;;;;;;4953863;28;20467;-47
2021/05/16 07:42:16;;;;;;;2.20;1.40;;;13.70;80.00;;;;;;4952498;28;20463;-47
2021/05/16 07:45:06;;;;;;;2.93;1.70;;;13.70;80.00;;;;;;4956386;28;20450;-47
2021/05/16 07:47:34;;;;;;;2.07;1.70;;;13.70;79.30;;;;;;4957690;28;20782;-47
2021/05/16 07:50:03;;;;;;;2.67;1.90;;;13.70;79.30;;;;;;4958767;28;21010;-47
2021/05/16 07:52:32;;;;;;;1.80;1.60;;;13.70;80.00;;;;;;4958186;28;21006;-47
2021/05/16 07:55:00;;;;;;;3.07;2.13;;;13.80;79.90;;;;;;4956697;28;20920;-47
2021/05/16 07:57:28;;;;;;;3.53;2.10;;;13.80;79.90;;;;;;4954852;28;20543;-47
2021/05/16 07:59:56;;;;;;;4.60;1.87;;;13.90;80.00;;;;;;4954608;28;20467;-47
2021/05/16 08:02:25;;;;;;;5.43;2.03;;;14.00;80.00;;;;;;4958688;28;20470;-47
2021/05/16 08:04:53;;;;;;;6.00;1.67;;;14.00;80.20;;;;;;4956329;28;20462;-47
2021/05/16 08:07:21;;;;;;;11.67;2.53;;;14.00;79.30;;;;;;4952693;28;20470;-48
2021/05/16 08:09:49;;;;;;;17.13;3.23;;;14.10;79.10;;;;;;4952711;28;20459;-48
2021/05/16 08:12:18;;;;;;;7.40;2.40;;;14.20;78.30;;;;;;4953794;28;20463;-47
2021/05/16 08:14:46;;;;;;;9.83;3.17;;;14.20;78.40;;;;;;4954258;28;20455;-47
2021/05/16 08:17:14;;;;;;;7.93;1.77;;;14.30;78.40;;;;;;4969931;28;20841;-47
2021/05/16 08:19:44;;;;;;;6.30;2.17;;;14.40;78.00;;;;;;4954730;28;20514;-47
2021/05/16 08:22:12;;;;;;;4.47;2.07;;;14.50;76.00;;;;;;4955371;28;20463;-47
2021/05/16 08:24:40;;;;;;;4.50;2.80;;;14.50;75.90;;;;;;4954888;28;20529;-47
2021/05/16 08:27:08;;;;;;;5.27;2.20;;;14.50;76.10;;;;;;4949068;28;20466;-47
2021/05/16 08:29:36;;;;;;;5.43;2.50;;;14.50;75.40;;;;;;4949578;28;20467;-47
2021/05/16 08:32:06;;;;;;;5.07;2.27;;;14.30;76.30;;;;;;4954316;28;20459;-47
2021/05/16 08:34:34;;;;;;;4.50;1.80;;;14.30;77.10;;;;;;4953883;28;20470;-47
2021/05/16 08:37:04;;;;;;;6.30;2.10;;;14.20;77.50;;;;;;4953016;28;20486;-47
2021/05/16 08:39:32;;;;;;;3.70;1.67;;;14.20;76.20;;;;;;4952715;28;20455;-47
2021/05/16 08:42:00;;;;;;;3.13;1.50;;;14.20;75.90;;;;;;4953276;28;20471;-47
2021/05/16 08:44:34;;;;;;;3.53;1.50;;;14.10;76.10;;;;;;4955422;28;20524;-47
2021/05/16 08:47:04;;;;;;;6.63;2.63;;;14.20;75.20;;;;;;4953234;28;20463;-47
2021/05/16 08:49:32;;;;;;;2.87;1.83;;;14.20;75.90;;;;;;4951418;28;20463;-48
2021/05/16 08:52:01;;;;;;;5.63;1.53;;;14.20;75.30;;;;;;4953813;28;21070;-47
2021/05/16 08:54:30;;;;;;;3.77;1.50;;;14.30;75.10;;;;;;4953711;28;20834;-47
2021/05/16 08:56:58;;;;;;;6.90;3.07;;;14.30;74.20;;;;;;4952995;28;20479;-47
2021/05/16 08:59:27;;;;;;;3.10;1.77;;;14.30;73.80;;;;;;4951587;28;20509;-47
2021/05/16 09:01:57;;;;;;;8.33;1.93;;;14.40;72.90;;;;;;4950202;28;22047;-47
2021/05/16 09:04:36;;;;;;;4.80;1.60;;;14.50;74.30;;;;;;4950293;28;20994;-47
2021/05/16 09:07:05;;;;;;;2.27;1.50;;;14.80;73.70;;;;;;4954078;28;20916;-47
2021/05/16 09:09:44;;;;;;;1.97;1.77;;;15.00;72.30;;;;;;4953728;28;20523;-47
2021/05/16 09:12:15;;;;;;;3.23;2.00;;;14.90;72.60;;;;;;4952011;28;20476;-48
2021/05/16 09:14:53;;;;;;;3.30;1.63;;;14.90;72.50;;;;;;4956414;28;20747;-47
2021/05/16 09:17:27;;;;;;;4.57;2.40;;;15.00;72.50;;;;;;4953741;28;20485;-47
2021/05/16 09:20:23;;;;;;;4.63;1.50;;;15.40;71.80;;;;;;4955094;28;20450;-47
2021/05/16 09:22:52;;;;;;;1.33;1.23;;;16.10;70.50;;;;;;4954005;28;20454;-48
2021/05/16 09:25:25;;;;;;;3.13;1.53;;;16.70;67.70;;;;;;4954429;28;20463;-48
2021/05/16 09:28:05;;;;;;;7.00;1.37;;;17.30;65.70;;;;;;4953335;28;20467;-48
2021/05/16 09:30:34;;;;;;;3.53;2.30;;;17.50;63.90;;;;;;4954860;28;20465;-48
2021/05/16 09:33:02;;;;;;;3.97;1.50;;;17.30;63.20;;;;;;4951915;28;20471;-48
2021/05/16 09:35:47;;;;;;;2.73;1.10;;;17.10;63.80;;;;;;4953177;28;20474;-48
2021/05/16 09:38:21;;;;;;;3.50;1.60;;;17.20;64.10;;;;;;4952562;28;20491;-48
2021/05/16 09:40:55;;;;;;;3.97;1.40;;;17.70;63.20;;;;;;4949639;28;20479;-48
2021/05/16 09:43:25;;;;;;;1.90;1.20;;;18.10;61.70;;;;;;4951344;28;20459;-48
2021/05/16 09:46:08;;;;;;;1.90;1.07;;;18.10;60.10;;;;;;4949590;28;20474;-48
2021/05/16 09:48:44;;;;;;;3.13;1.17;;;18.30;61.10;;;;;;4952277;28;20462;-48
2021/05/16 09:51:25;;;;;;;3.33;1.50;;;18.90;58.50;;;;;;4952361;28;20843;-48
2021/05/16 09:53:53;;;;;;;3.13;1.30;;;19.50;57.30;;;;;;4951935;28;20470;-48
2021/05/16 09:56:36;;;;;;;4.93;1.40;;;20.10;55.60;;;;;;4946457;28;20534;-48
2021/05/16 09:59:09;;;;;;;6.13;1.63;;;20.70;55.70;;;;;;4948612;28;20487;-49
2021/05/16 10:01:39;;;;;;;2.97;0.97;;;21.00;51.90;;;;;;4950914;28;20486;-49
2021/05/16 10:04:08;;;;;;;6.87;2.40;;;20.90;51.50;;;;;;4951822;28;20463;-49
2021/05/16 10:06:36;;;;;;;2.90;1.30;;;20.80;51.70;;;;;;4954754;28;20443;-48
2021/05/16 10:09:05;;;;;;;1.90;1.00;;;20.40;50.70;;;;;;4954330;28;20463;-49
2021/05/16 10:11:33;;;;;;;2.53;1.07;;;19.90;53.50;;;;;;4951820;28;20895;-49
2021/05/16 10:14:13;;;;;;;3.90;1.30;;;19.60;53.80;;;;;;4951740;28;20510;-49
2021/05/16 10:16:45;;;;;;;2.43;0.97;;;19.50;54.60;;;;;;4947538;28;20479;-49
2021/05/16 10:19:26;;;;;;;3.03;0.90;;;19.20;53.90;;;;;;4951591;28;20505;-49
2021/05/16 10:22:13;;;;;;;5.93;1.00;;;18.90;53.80;;;;;;4944415;28;20459;-48
2021/05/16 10:24:50;;;;;;;3.63;1.27;;;18.60;55.10;;;;;;4950487;28;20454;-49
2021/05/16 10:27:22;;;;;;;5.87;1.20;;;18.50;54.40;;;;;;4952712;28;20919;-48
2021/05/16 10:29:54;;;;;;;2.70;1.40;;;18.50;55.00;;;;;;4949441;28;20533;-48
2021/05/16 10:32:35;;;;;;;4.53;1.50;;;18.40;55.20;;;;;;4950975;28;20458;-48
2021/05/16 10:35:08;;;;;;;4.90;1.67;;;18.40;57.80;;;;;;4951909;28;20458;-48
2021/05/16 10:37:54;;;;;;;5.23;2.13;;;18.50;58.50;;;;;;4954349;28;21004;-49
2021/05/16 10:40:30;;;;;;;5.33;1.63;;;18.60;58.90;;;;;;4950827;28;21006;-49
2021/05/16 10:43:24;;;;;;;2.43;1.30;;;18.80;58.50;;;;;;4952488;28;20939;-49
2021/05/16 10:45:52;;;;;;;2.97;1.30;;;18.80;57.50;;;;;;4954540;28;20470;-49
2021/05/16 10:48:20;;;;;;;2.63;1.00;;;18.80;56.90;;;;;;4951265;28;20458;-49
2021/05/16 10:50:57;;;;;;;3.20;1.07;;;18.80;55.40;;;;;;4948532;28;20539;-49
2021/05/16 10:53:31;;;;;;;4.60;1.57;;;18.70;55.10;;;;;;4951853;28;20875;-48
2021/05/16 10:56:18;;;;;;;1.83;1.20;;;18.60;56.00;;;;;;4947221;28;20857;-49
2021/05/16 10:58:48;;;;;;;2.10;1.00;;;18.50;56.30;;;;;;4946311;28;21036;-54
2021/05/16 11:01:18;;;;;;;1.70;1.07;;;18.50;55.20;;;;;;4950155;28;20471;-49
2021/05/16 11:03:52;;;;;;;2.77;1.30;;;18.40;55.00;;;;;;4952103;28;20459;-49
2021/05/16 11:06:42;;;;;;;4.50;1.13;;;18.30;54.80;;;;;;4950674;28;20482;-49
2021/05/16 11:09:14;;;;;;;4.07;1.00;;;18.30;55.70;;;;;;4953264;28;20999;-49
2021/05/16 11:11:49;;;;;;;1.77;1.60;;;18.20;56.70;;;;;;4951610;28;20959;-49
2021/05/16 11:14:25;;;;;;;3.50;1.40;;;18.30;57.70;;;;;;4950574;28;20454;-49
2021/05/16 11:17:01;;;;;;;7.20;2.10;;;18.20;56.90;;;;;;4948161;28;20455;-49
2021/05/16 11:19:31;;;;;;;3.23;1.33;;;18.30;57.40;;;;;;4953041;28;20490;-49
2021/05/16 11:22:11;;;;;;;1.53;0.90;;;18.40;56.80;;;;;;4951740;28;20474;-49
2021/05/16 11:24:50;;;;;;;5.07;1.50;;;18.50;56.00;;;;;;4951804;28;20861;-49
2021/05/16 11:27:20;;;;;;;2.50;1.20;;;18.50;55.00;;;;;;4951627;28;20462;-49
2021/05/16 11:29:53;;;;;;;4.20;1.40;;;18.40;54.90;;;;;;4953035;28;20860;-49
2021/05/16 11:32:29;;;;;;;5.23;1.10;;;18.30;56.40;;;;;;4950959;28;20960;-49
2021/05/16 11:35:15;;;;;;;2.97;1.80;;;18.30;56.70;;;;;;4951163;28;20478;-49
2021/05/16 11:37:48;;;;;;;1.70;1.20;;;18.20;56.10;;;;;;4951246;28;20581;-49
2021/05/16 11:40:28;;;;;;;4.10;1.30;;;18.20;55.70;;;;;;4948806;28;20518;-49
2021/05/16 11:43:02;;;;;;;3.93;1.53;;;18.20;56.20;;;;;;4950766;28;20454;-49
2021/05/16 11:45:33;;;;;;;3.93;1.33;;;18.10;56.10;;;;;;4952668;28;20447;-49
2021/05/16 11:48:01;;;;;;;2.33;1.13;;;18.10;56.60;;;;;;4949588;28;20447;-49
2021/05/16 11:50:41;;;;;;;1.00;0.90;;;18.20;56.60;;;;;;4952521;28;20455;-49
2021/05/16 11:53:10;;;;;;;2.10;1.77;;;18.30;56.20;;;;;;4944645;28;21018;-49
2021/05/16 11:55:38;;;;;;;4.93;1.47;;;18.40;55.60;;;;;;4950201;28;20834;-49
2021/05/16 11:58:09;;;;;;;4.17;1.70;;;18.40;54.90;;;;;;4947511;28;20744;-49
2021/05/16 12:00:37;;;;;;;5.63;1.73;;;18.40;55.00;;;;;;4951697;28;20513;-49
2021/05/16 12:03:13;;;;;;;3.70;1.57;;;18.40;56.50;;;;;;4954969;28;20462;-49
2021/05/16 12:05:43;;;;;;;3.63;1.23;;;18.40;56.70;;;;;;4952640;28;20470;-49
2021/05/16 12:08:19;;;;;;;2.13;1.10;;;18.40;54.40;;;;;;4956263;28;20462;-49
2021/05/16 12:11:11;;;;;;;4.47;2.13;;;18.40;54.70;;;;;;4950117;28;20470;-49
2021/05/16 12:13:40;;;;;;;2.67;1.80;;;18.30;56.20;;;;;;4953865;28;20462;-49
2021/05/16 12:16:19;;;;;;;6.40;1.93;;;18.30;56.30;;;;;;4949858;28;20467;-49
2021/05/16 12:18:52;;;;;;;2.67;0.80;;;18.20;57.70;;;;;;4958043;28;20495;-49
2021/05/16 12:21:21;;;;;;;2.40;1.27;;;18.10;56.70;;;;;;4957633;28;20466;-49
2021/05/16 12:24:09;;;;;;;2.23;0.70;;;17.90;58.70;;;;;;4958944;28;20464;-49
2021/05/16 12:26:39;;;;;;;2.30;0.77;;;17.70;59.40;;;;;;4960197;28;20864;-49
2021/05/16 12:29:07;;;;;;;4.33;0.73;;;17.50;59.70;;;;;;4954536;28;20463;-49
2021/05/16 12:31:38;;;;;;;1.93;1.40;;;17.30;61.50;;;;;;4963331;28;20443;-49
2021/05/16 12:34:07;;;;;;;3.30;0.60;;;17.10;61.90;;;;;;4955514;28;20958;-49
2021/05/16 12:36:49;;;;;;;2.13;0.67;;;17.00;63.70;;;;;;4953318;28;20469;-49
2021/05/16 12:39:38;;;;;;;3.23;0.60;;;17.00;62.20;;;;;;4957353;28;20570;-49
2021/05/16 12:42:37;;;;;;;3.23;0.77;;;17.00;61.70;;;;;;4954194;28;20451;-49
2021/05/16 12:45:22;;;;;;;2.10;0.90;;;17.00;61.10;;;;;;4955513;28;20458;-49
2021/05/16 12:47:59;;;;;;;1.40;0.90;;;17.00;60.50;;;;;;4952249;28;20474;-49
2021/05/16 12:50:39;;;;;;;1.00;0.70;;;17.10;59.90;;;;;;4953600;28;20471;-49
2021/05/16 12:53:25;;;;;;;2.20;0.70;;;17.10;61.00;;;;;;4957053;28;20457;-49
2021/05/16 12:56:14;;;;;;;3.37;0.90;;;17.20;61.80;;;;;;4952509;28;20459;-49
2021/05/16 12:59:09;;;;;;;1.50;0.80;;;17.20;61.50;;;;;;4954146;28;20494;-49
2021/05/16 13:01:39;;;;;;;3.43;1.47;;;17.20;61.20;;;;;;4957371;28;20552;-49
2021/05/16 13:04:11;;;;;;;1.80;1.30;;;17.30;61.20;;;;;;4955317;28;20474;-49